Current Weather

Gary/Chicago Intl

Gary, Indiana (KGYY)

Report from: Friday, February 3, 2023 11:55 PM CST
Current time: Saturday, February 4, 2023 12:35 AM CST

Nearby weather
Weather history
Weather forecast

Temperature-11.1°C (12.0°F)
Wind chill-15.5°C (4.1°F)
Dew point-17.0°C (1.4°F)
Winds 4 kts (2.1 m/s, 4.6 mph) South (170°)
Visibility10 mi. (16.1 km)
Clouds Scattered clouds 6,500 ft. (1,981 m)
Altimeter30.49 in.Hg (1033 mB)
Relative humidity62 %
Density altitude-3,901 ft. (-1,189 m)
Max temp last 6 hours-10.1°C (13.8°F)
Min temp last 6 hours-11.7°C (10.9°F)
Max temp last 24 hours-9.6°C (14.7°F)
Min temp last 24 hours-15.0°C (5.0°F)
Remarks Fully automated report
Automated weather observing station with precipitation discriminator
Flight conditions Visual Meteorological Conditions
Raw dataKGYY 040555Z AUTO 17004KT 10SM SCT065 M11/M17 A3049 RMK AO2 T11111170 11101 21117 410961150
An unhandled exception has occurred. See browser dev tools for details. Reload 🗙